SBBW

Barra do Garças Airport

Airport
ICAO code
SBBW
IATA Code
BPG
Summary
ICAO Region
CARSAM
ICAO Territory
Location

Barra do Garças, Mato Grosso

Serving
Barra do Garças
Elevation
1147 ft
Coordinates
15° 51' 39" S , 52° 23' 22" W
KCC
Metar
SBBW 221500Z 06002KT CAVOK 32/18 Q1016

Barra do Garças Airport is the airport serving Barra do Garças, Brazil.

Climatology

Tropical savanna climate (Köppen climate classification Aw)

Runways

Designator Length Width Surface Rops
7/25 1598 30 ASP No/No

Airport map

Aerial View

SKYbrary Partners:

Safety knowledge contributed by: